createdAt,value
2018-09-20T00:01:25.199Z,99.90
2018-09-20T00:03:53.300Z,99.90
2018-09-20T00:06:21.462Z,99.90
2018-09-20T00:08:49.596Z,99.90
2018-09-20T00:11:17.778Z,99.90
2018-09-20T00:13:45.898Z,99.90
2018-09-20T00:16:14.013Z,99.90
2018-09-20T00:18:42.160Z,99.90
2018-09-20T00:22:39.539Z,99.90
2018-09-20T00:25:07.644Z,99.90
2018-09-20T00:27:35.930Z,99.90
2018-09-20T00:30:04.136Z,99.90
2018-09-20T00:32:32.274Z,99.90
2018-09-20T00:35:00.388Z,99.90
2018-09-20T00:37:28.526Z,99.90
2018-09-20T00:39:56.657Z,99.90
2018-09-20T00:42:24.833Z,99.90
2018-09-20T00:44:53.078Z,99.90
2018-09-20T00:47:21.165Z,99.90
2018-09-20T00:49:49.487Z,99.90
2018-09-20T00:52:17.634Z,99.90
2018-09-20T00:54:45.881Z,99.90
2018-09-20T00:57:13.947Z,99.90
2018-09-20T00:59:42.031Z,99.90
2018-09-20T01:02:10.157Z,99.90
2018-09-20T01:04:38.258Z,99.90
2018-09-20T01:07:06.331Z,99.90
2018-09-20T01:09:34.434Z,99.90
2018-09-20T01:12:02.645Z,99.90
2018-09-20T01:14:30.785Z,99.90
2018-09-20T01:16:58.975Z,99.90
2018-09-20T01:19:27.175Z,99.90
2018-09-20T01:21:55.362Z,99.90
2018-09-20T01:24:23.449Z,99.90
2018-09-20T01:26:51.601Z,99.90
2018-09-20T01:29:19.749Z,99.90
2018-09-20T01:31:47.952Z,99.90
2018-09-20T01:34:16.069Z,99.90
2018-09-20T01:36:44.264Z,99.90
2018-09-20T01:39:14.384Z,99.90
2018-09-20T01:41:42.764Z,99.90
2018-09-20T01:44:11.545Z,99.90
2018-09-20T01:46:39.702Z,99.90
2018-09-20T01:49:08.473Z,99.90
2018-09-20T01:51:36.732Z,99.90
2018-09-20T01:54:04.820Z,99.90
2018-09-20T01:56:32.887Z,99.90
2018-09-20T01:59:01.017Z,99.90
2018-09-20T02:01:29.085Z,99.90
2018-09-20T02:03:57.316Z,99.90
2018-09-20T02:06:25.442Z,99.90
2018-09-20T02:08:53.613Z,99.90
2018-09-20T02:11:21.772Z,99.90
2018-09-20T02:13:49.927Z,99.90
2018-09-20T02:16:18.044Z,99.90
2018-09-20T02:18:46.248Z,99.90
2018-09-20T02:21:14.592Z,99.90
2018-09-20T02:23:42.735Z,99.90
2018-09-20T02:26:10.846Z,99.90
2018-09-20T02:28:39.026Z,99.90
2018-09-20T02:31:07.160Z,99.90
2018-09-20T02:33:35.395Z,99.90
2018-09-20T02:36:03.475Z,99.90
2018-09-20T02:38:31.613Z,99.90
2018-09-20T02:40:59.794Z,99.90
2018-09-20T02:43:27.944Z,99.90
2018-09-20T02:45:56.079Z,99.90
2018-09-20T02:48:24.164Z,99.90
2018-09-20T02:50:52.268Z,99.90
2018-09-20T02:53:20.395Z,99.90
2018-09-20T02:55:48.530Z,99.90
2018-09-20T02:58:16.680Z,99.90
2018-09-20T03:00:44.865Z,99.90
2018-09-20T03:03:13.055Z,99.90
2018-09-20T03:05:41.241Z,99.90
2018-09-20T03:08:09.414Z,99.90
2018-09-20T03:10:37.521Z,99.90
2018-09-20T03:13:05.694Z,99.90
2018-09-20T03:15:33.834Z,99.90
2018-09-20T03:18:01.994Z,99.90
2018-09-20T03:20:30.213Z,99.90
2018-09-20T03:22:58.319Z,99.90
2018-09-20T03:25:26.560Z,99.90
2018-09-20T03:27:54.721Z,99.90
2018-09-20T03:30:23.385Z,99.90
2018-09-20T03:32:51.470Z,99.90
2018-09-20T03:35:19.564Z,99.90
2018-09-20T03:37:47.760Z,99.90
2018-09-20T03:40:15.851Z,99.90
2018-09-20T03:42:44.043Z,99.90
2018-09-20T03:45:12.195Z,99.90
2018-09-20T03:47:40.337Z,99.90
2018-09-20T03:50:08.593Z,99.90
2018-09-20T03:52:36.829Z,99.90
2018-09-20T03:55:05.408Z,99.90
2018-09-20T03:57:33.789Z,99.90
2018-09-20T04:00:01.941Z,99.90
2018-09-20T04:02:30.059Z,99.90
2018-09-20T04:04:58.242Z,99.90
2018-09-20T04:07:26.396Z,99.90
2018-09-20T04:09:54.571Z,99.90
2018-09-20T04:12:22.727Z,99.90
2018-09-20T04:14:50.780Z,99.90
2018-09-20T04:17:18.944Z,99.90
2018-09-20T04:19:47.080Z,99.90
2018-09-20T04:22:15.244Z,99.90
2018-09-20T04:24:43.372Z,99.90
2018-09-20T04:27:11.476Z,99.90
2018-09-20T04:29:39.607Z,99.90
2018-09-20T04:32:07.814Z,99.90
2018-09-20T04:34:35.930Z,99.90
2018-09-20T04:37:04.092Z,99.90
2018-09-20T04:39:32.349Z,99.90
2018-09-20T04:42:00.561Z,99.90
2018-09-20T04:44:28.805Z,99.90
2018-09-20T04:46:56.962Z,99.90
2018-09-20T04:49:25.113Z,99.90
2018-09-20T04:51:53.281Z,99.90
2018-09-20T04:54:21.511Z,99.90
2018-09-20T04:56:49.590Z,99.90
2018-09-20T04:59:17.823Z,99.90
2018-09-20T05:01:45.956Z,99.90
2018-09-20T05:04:14.137Z,99.90
2018-09-20T05:06:42.303Z,99.90
2018-09-20T05:09:12.808Z,99.90
2018-09-20T05:11:41.467Z,99.90
2018-09-20T05:14:09.965Z,99.90
2018-09-20T05:16:38.500Z,99.90
2018-09-20T05:19:06.714Z,99.90
2018-09-20T05:21:34.834Z,99.90
2018-09-20T05:24:03.146Z,99.90
2018-09-20T05:26:31.341Z,99.90
2018-09-20T05:28:59.539Z,99.90
2018-09-20T05:31:27.646Z,99.90
2018-09-20T05:33:55.858Z,99.90
2018-09-20T05:36:24.050Z,99.90
2018-09-20T05:38:52.225Z,99.90
2018-09-20T05:41:20.377Z,99.90
2018-09-20T05:43:48.579Z,99.90
2018-09-20T05:46:16.685Z,99.90
2018-09-20T05:48:44.933Z,99.90
2018-09-20T05:51:13.039Z,99.90
2018-09-20T05:53:41.251Z,99.90
2018-09-20T05:56:09.411Z,99.90
2018-09-20T05:58:37.666Z,99.90
2018-09-20T06:01:06.029Z,99.90
2018-09-20T06:03:34.286Z,99.90
2018-09-20T06:06:02.435Z,99.90
2018-09-20T06:08:30.575Z,99.90
2018-09-20T06:10:58.788Z,99.90
2018-09-20T06:13:26.969Z,99.90
2018-09-20T06:15:55.089Z,99.90
2018-09-20T06:18:23.247Z,99.90
2018-09-20T06:20:51.441Z,99.90
2018-09-20T06:23:19.816Z,99.90
2018-09-20T06:25:48.056Z,99.90
2018-09-20T06:28:16.206Z,99.90
2018-09-20T06:30:44.353Z,99.90
2018-09-20T06:33:12.581Z,99.90
2018-09-20T06:35:40.676Z,99.90
2018-09-20T06:38:08.945Z,99.90
2018-09-20T06:40:37.220Z,99.90
2018-09-20T06:43:05.422Z,99.90
2018-09-20T06:45:33.572Z,99.90
2018-09-20T06:48:01.787Z,99.90
2018-09-20T06:50:30.460Z,99.90
2018-09-20T06:52:58.556Z,99.90
2018-09-20T06:55:26.684Z,99.90
2018-09-20T06:57:54.856Z,99.90
2018-09-20T07:00:23.048Z,99.90
2018-09-20T07:02:51.349Z,99.90
2018-09-20T07:05:19.493Z,99.90
2018-09-20T07:07:47.758Z,99.60
2018-09-20T07:10:16.022Z,99.40
2018-09-20T07:12:44.264Z,99.40
2018-09-20T07:15:12.409Z,99.30
2018-09-20T07:17:40.617Z,99.00
2018-09-20T07:20:08.765Z,98.80
2018-09-20T07:22:36.971Z,98.70
2018-09-20T07:25:05.084Z,98.50
2018-09-20T07:27:33.241Z,98.70
2018-09-20T07:30:01.376Z,97.90
2018-09-20T07:32:29.532Z,97.70
2018-09-20T07:34:57.694Z,97.40
2018-09-20T07:37:26.027Z,97.40
2018-09-20T07:39:54.164Z,97.10
2018-09-20T07:42:22.340Z,96.80
2018-09-20T07:44:50.524Z,96.60
2018-09-20T07:47:18.667Z,96.60
2018-09-20T07:49:46.829Z,96.20
2018-09-20T07:52:15.102Z,95.90
2018-09-20T07:54:43.410Z,95.80
2018-09-20T07:57:11.663Z,95.60
2018-09-20T07:59:39.883Z,95.80
2018-09-20T08:02:08.149Z,95.30
2018-09-20T08:04:36.164Z,94.70
2018-09-20T08:07:04.344Z,94.60
2018-09-20T08:09:32.531Z,94.30
2018-09-20T08:12:30.299Z,94.00
2018-09-20T08:14:58.494Z,93.90
2018-09-20T08:17:26.700Z,93.60
2018-09-20T08:19:54.881Z,93.20
2018-09-20T08:22:22.995Z,92.70
2018-09-20T08:24:51.209Z,90.10
2018-09-20T08:27:19.357Z,85.00
2018-09-20T08:29:47.637Z,80.90
2018-09-20T08:32:15.809Z,79.00
2018-09-20T08:34:44.057Z,78.50
2018-09-20T08:37:12.217Z,76.00
2018-09-20T08:39:40.384Z,74.40
2018-09-20T08:42:08.568Z,72.90
2018-09-20T08:51:36.924Z,72.80
2018-09-20T08:54:05.123Z,70.50
2018-09-20T08:56:33.353Z,69.10
2018-09-20T08:59:01.419Z,69.20
2018-09-20T09:01:29.630Z,68.80
2018-09-20T09:03:57.900Z,66.90
2018-09-20T09:06:26.184Z,66.30
2018-09-20T09:08:54.323Z,66.10
2018-09-20T09:11:22.476Z,65.70
2018-09-20T09:13:50.582Z,65.40
2018-09-20T09:16:18.846Z,64.60
2018-09-20T09:18:46.953Z,62.10
2018-09-20T09:21:15.140Z,63.80
2018-09-20T09:23:43.293Z,67.50
2018-09-20T09:26:11.480Z,70.70
2018-09-20T09:28:39.785Z,75.00
2018-09-20T09:31:07.904Z,74.40
2018-09-20T09:33:36.145Z,68.20
2018-09-20T09:36:04.300Z,64.20
2018-09-20T09:38:32.460Z,61.30
2018-09-20T09:41:00.603Z,61.10
2018-09-20T09:43:29.340Z,61.50
2018-09-20T09:45:57.465Z,59.40
2018-09-20T09:48:25.600Z,59.40
2018-09-20T09:50:53.720Z,59.70
2018-09-20T09:53:21.918Z,57.30
2018-09-20T09:55:50.165Z,55.40
2018-09-20T09:58:18.313Z,56.00
2018-09-20T10:00:46.514Z,56.20
2018-09-20T10:03:14.707Z,57.50
2018-09-20T10:05:42.875Z,58.00
2018-09-20T10:08:11.020Z,58.60
2018-09-20T10:10:39.178Z,59.80
2018-09-20T10:13:07.402Z,60.30
2018-09-20T10:15:35.522Z,59.20
2018-09-20T10:18:03.690Z,59.00
2018-09-20T10:20:31.927Z,57.70
2018-09-20T10:23:00.056Z,60.50
2018-09-20T10:25:28.238Z,60.30
2018-09-20T10:27:56.452Z,61.50
2018-09-20T10:30:24.574Z,63.30
2018-09-20T10:32:52.732Z,62.00
2018-09-20T10:35:20.911Z,60.20
2018-09-20T10:37:49.162Z,58.70
2018-09-20T10:40:17.424Z,58.10
2018-09-20T10:42:45.564Z,59.00
2018-09-20T10:45:13.775Z,59.00
2018-09-20T10:47:41.904Z,60.60
2018-09-20T10:50:10.271Z,58.80
2018-09-20T10:52:38.556Z,56.50
2018-09-20T10:55:06.756Z,55.90
2018-09-20T10:57:34.880Z,55.40
2018-09-20T11:00:03.045Z,55.80
2018-09-20T11:02:31.282Z,58.00
2018-09-20T11:04:59.409Z,61.90
2018-09-20T11:07:27.651Z,61.10
2018-09-20T11:09:55.791Z,59.20
2018-09-20T11:12:23.973Z,54.80
2018-09-20T11:14:52.186Z,56.20
2018-09-20T11:17:20.422Z,56.80
2018-09-20T11:19:48.637Z,53.30
2018-09-20T11:22:16.869Z,53.00
2018-09-20T11:24:45.066Z,53.40
2018-09-20T11:27:13.195Z,52.20
2018-09-20T11:29:41.400Z,51.60
2018-09-20T11:32:09.547Z,53.70
2018-09-20T11:34:37.700Z,53.10
2018-09-20T11:37:05.947Z,54.30
2018-09-20T11:39:34.093Z,54.50
2018-09-20T11:42:02.254Z,55.40
2018-09-20T11:44:30.384Z,55.30
2018-09-20T11:46:58.599Z,54.50
2018-09-20T11:49:26.753Z,52.90
2018-09-20T11:51:54.929Z,54.00
2018-09-20T11:54:23.144Z,53.40
2018-09-20T11:56:51.314Z,51.60
2018-09-20T11:59:19.560Z,52.00
2018-09-20T12:01:47.769Z,53.70
2018-09-20T12:04:16.011Z,54.50
2018-09-20T12:06:44.283Z,53.10
2018-09-20T12:09:12.428Z,52.00
2018-09-20T12:11:40.612Z,52.40
2018-09-20T12:14:08.894Z,52.90
2018-09-20T12:16:37.180Z,53.20
2018-09-20T12:19:05.517Z,54.30
2018-09-20T12:21:33.718Z,53.80
2018-09-20T12:24:01.949Z,52.20
2018-09-20T12:26:30.109Z,54.20
2018-09-20T12:28:58.322Z,53.90
2018-09-20T12:31:26.478Z,51.70
2018-09-20T12:33:54.650Z,54.00
2018-09-20T12:36:23.118Z,55.20
2018-09-20T12:38:51.357Z,56.50
2018-09-20T12:41:19.529Z,57.90
2018-09-20T12:43:47.713Z,59.30
2018-09-20T12:46:15.944Z,57.70
2018-09-20T12:48:44.102Z,55.20
2018-09-20T12:51:12.241Z,54.70
2018-09-20T12:53:40.453Z,56.40
2018-09-20T12:56:08.651Z,57.80
2018-09-20T12:58:41.202Z,57.40
2018-09-20T13:01:09.533Z,56.80
2018-09-20T13:03:37.609Z,55.20
2018-09-20T13:06:05.796Z,54.90
2018-09-20T13:08:34.001Z,55.40
2018-09-20T13:11:02.221Z,56.20
2018-09-20T13:13:30.455Z,55.60
2018-09-20T13:15:58.641Z,55.00
2018-09-20T13:18:26.815Z,51.20
2018-09-20T13:20:55.279Z,52.40
2018-09-20T13:23:23.414Z,54.70
2018-09-20T13:25:51.581Z,54.90
2018-09-20T13:28:19.762Z,54.30
2018-09-20T13:30:47.977Z,53.70
2018-09-20T13:33:16.180Z,51.20
2018-09-20T13:35:44.373Z,48.20
2018-09-20T13:38:12.618Z,47.50
2018-09-20T13:40:40.882Z,49.10
2018-09-20T13:43:09.145Z,49.10
2018-09-20T13:45:37.322Z,48.30
2018-09-20T13:48:05.619Z,48.80
2018-09-20T13:50:33.852Z,48.40
2018-09-20T13:53:02.155Z,48.20
2018-09-20T13:55:30.396Z,49.10
2018-09-20T13:57:58.715Z,50.70
2018-09-20T14:00:27.234Z,52.00
2018-09-20T14:02:55.434Z,52.70
2018-09-20T14:05:23.996Z,51.00
2018-09-20T14:07:52.101Z,49.00
2018-09-20T14:10:20.292Z,48.60
2018-09-20T14:12:48.445Z,50.20
2018-09-20T14:15:16.706Z,52.20
2018-09-20T14:17:45.026Z,51.20
2018-09-20T14:20:13.218Z,51.10
2018-09-20T14:22:41.364Z,50.40
2018-09-20T14:25:09.524Z,50.60
2018-09-20T14:27:37.720Z,49.80
2018-09-20T14:30:05.893Z,49.20
2018-09-20T14:32:34.124Z,48.10
2018-09-20T14:35:02.409Z,47.30
2018-09-20T14:37:30.669Z,46.40
2018-09-20T14:39:58.829Z,46.30
2018-09-20T14:42:26.967Z,47.60
2018-09-20T14:44:55.149Z,48.40
2018-09-20T14:47:23.370Z,49.10
2018-09-20T14:49:51.585Z,51.00
2018-09-20T14:52:19.715Z,51.30
2018-09-20T14:54:47.849Z,51.20
2018-09-20T14:57:15.975Z,51.30
2018-09-20T14:59:44.209Z,51.60
2018-09-20T15:02:12.340Z,51.70
2018-09-20T15:04:40.512Z,50.70
2018-09-20T15:07:08.703Z,49.60
2018-09-20T15:09:36.859Z,48.90
2018-09-20T15:12:05.125Z,47.70
2018-09-20T15:14:33.327Z,48.20
2018-09-20T15:17:01.564Z,49.00
2018-09-20T15:19:29.710Z,49.60
2018-09-20T15:21:57.932Z,50.10
2018-09-20T15:24:26.071Z,50.20
2018-09-20T15:26:54.476Z,50.20
2018-09-20T15:29:22.736Z,49.60
2018-09-20T15:31:50.925Z,48.20
2018-09-20T15:34:19.145Z,48.80
2018-09-20T15:36:47.356Z,49.30
2018-09-20T15:39:15.489Z,50.00
2018-09-20T15:41:43.673Z,49.70
2018-09-20T15:44:11.904Z,49.60
2018-09-20T15:46:40.148Z,50.20
2018-09-20T15:49:08.349Z,50.20
2018-09-20T15:51:36.594Z,51.20
2018-09-20T15:54:04.664Z,51.40
2018-09-20T15:56:32.765Z,51.70
2018-09-20T15:59:00.869Z,52.00
2018-09-20T16:01:29.057Z,52.40
2018-09-20T16:03:57.196Z,53.10
2018-09-20T16:06:25.415Z,53.30
2018-09-20T16:08:53.573Z,53.10
2018-09-20T16:11:21.637Z,53.10
2018-09-20T16:13:49.720Z,53.70
2018-09-20T16:16:17.906Z,54.20
2018-09-20T16:18:46.102Z,54.80
2018-09-20T16:21:14.889Z,55.20
2018-09-20T16:23:43.136Z,55.50
2018-09-20T16:26:11.128Z,56.10
2018-09-20T16:28:52.131Z,56.40
2018-09-20T16:37:58.033Z,57.00
2018-09-20T16:40:28.696Z,57.40
2018-09-20T16:42:56.898Z,59.00
2018-09-20T16:45:25.056Z,59.40
2018-09-20T16:47:53.306Z,60.00
2018-09-20T16:50:21.506Z,60.90
2018-09-20T16:52:49.645Z,62.00
2018-09-20T16:55:17.768Z,62.00
2018-09-20T16:57:45.866Z,62.50
2018-09-20T17:00:14.013Z,62.60
2018-09-20T17:02:42.452Z,63.40
2018-09-20T17:05:11.141Z,64.00
2018-09-20T17:07:39.266Z,65.70
2018-09-20T17:10:07.365Z,65.90
2018-09-20T17:12:35.720Z,66.80
2018-09-20T17:15:04.014Z,68.30
2018-09-20T17:17:32.087Z,68.60
2018-09-20T17:20:00.644Z,70.30
2018-09-20T17:22:28.809Z,72.60
2018-09-20T17:24:56.867Z,72.90
2018-09-20T17:27:25.371Z,73.00
2018-09-20T17:29:53.608Z,73.60
2018-09-20T17:32:21.842Z,74.90
2018-09-20T17:34:50.105Z,75.50
2018-09-20T17:37:19.544Z,76.10
2018-09-20T17:39:49.552Z,77.60
2018-09-20T17:42:18.152Z,78.40
2018-09-20T17:44:46.233Z,79.00
2018-09-20T17:47:14.427Z,79.70
2018-09-20T17:49:42.626Z,79.80
2018-09-20T17:52:11.221Z,79.70
2018-09-20T17:54:39.798Z,80.20
2018-09-20T17:57:08.695Z,79.70
2018-09-20T17:59:36.880Z,79.80
2018-09-20T18:02:04.943Z,80.10
2018-09-20T18:04:33.251Z,80.00
2018-09-20T18:07:01.369Z,80.30
2018-09-20T18:09:29.540Z,80.90
2018-09-20T18:11:57.758Z,81.30
2018-09-20T18:14:25.973Z,81.60
2018-09-20T18:16:54.295Z,83.30
2018-09-20T18:19:22.629Z,82.60
2018-09-20T18:21:51.147Z,82.30
2018-09-20T18:24:19.339Z,82.50
2018-09-20T18:26:47.675Z,82.60
2018-09-20T18:29:15.885Z,82.90
2018-09-20T18:31:44.165Z,82.90
2018-09-20T18:34:12.409Z,83.10
2018-09-20T18:36:40.676Z,83.20
2018-09-20T18:39:10.615Z,83.60
2018-09-20T18:41:38.760Z,84.10
2018-09-20T18:44:07.392Z,84.70
2018-09-20T18:46:35.545Z,85.40
2018-09-20T18:49:03.717Z,85.70
2018-09-20T18:51:31.995Z,86.10
2018-09-20T18:54:00.147Z,86.90
2018-09-20T18:56:28.527Z,87.40
2018-09-20T18:58:56.836Z,88.00
2018-09-20T19:01:25.114Z,87.60
2018-09-20T19:03:53.427Z,88.10
2018-09-20T19:06:21.620Z,88.60
2018-09-20T19:08:49.848Z,88.90
2018-09-20T19:11:18.125Z,89.30
2018-09-20T19:13:46.305Z,89.70
2018-09-20T19:16:14.461Z,89.90
2018-09-20T19:18:42.793Z,90.00
2018-09-20T19:21:10.961Z,89.80
2018-09-20T19:23:39.064Z,89.40
2018-09-20T19:26:07.237Z,89.90
2018-09-20T19:28:35.412Z,90.40
2018-09-20T19:31:03.672Z,90.90
2018-09-20T19:33:31.777Z,91.30
2018-09-20T19:36:00.049Z,91.40
2018-09-20T19:38:28.350Z,91.50
2018-09-20T19:40:56.608Z,92.10
2018-09-20T19:43:24.814Z,92.00
2018-09-20T19:45:52.988Z,92.50
2018-09-20T19:48:21.118Z,92.20
2018-09-20T19:50:49.295Z,92.40
2018-09-20T19:53:17.555Z,92.60
2018-09-20T19:55:45.759Z,92.70
2018-09-20T19:58:13.953Z,92.90
2018-09-20T20:00:42.150Z,92.80
2018-09-20T20:03:10.332Z,92.90
2018-09-20T20:05:38.489Z,93.00
2018-09-20T20:08:06.658Z,93.10
2018-09-20T20:10:34.887Z,93.90
2018-09-20T20:13:03.145Z,93.60
2018-09-20T20:15:31.306Z,93.60
2018-09-20T20:17:59.379Z,93.90
2018-09-20T20:20:27.432Z,94.10
2018-09-20T20:22:55.558Z,94.00
2018-09-20T20:25:23.670Z,94.20
2018-09-20T20:27:51.800Z,94.30
2018-09-20T20:30:19.902Z,94.40
2018-09-20T20:32:47.984Z,94.60
2018-09-20T20:35:16.065Z,94.50
2018-09-20T20:37:50.504Z,95.00
2018-09-20T20:40:18.791Z,95.10
2018-09-20T20:42:46.905Z,95.00
2018-09-20T20:45:15.422Z,95.20
2018-09-20T20:47:43.605Z,95.40
2018-09-20T20:50:11.668Z,95.70
2018-09-20T20:52:39.810Z,96.40
2018-09-20T20:55:07.894Z,96.10
2018-09-20T20:57:36.146Z,96.00
2018-09-20T21:00:04.253Z,96.20
2018-09-20T21:02:32.341Z,96.30
2018-09-20T21:05:00.457Z,96.40
2018-09-20T21:07:28.661Z,96.60
2018-09-20T21:09:56.847Z,96.90
2018-09-20T21:12:25.020Z,97.30
2018-09-20T21:14:53.144Z,97.10
2018-09-20T21:17:21.366Z,97.00
2018-09-20T21:19:49.616Z,97.00
2018-09-20T21:23:47.209Z,97.00
2018-09-20T21:26:15.462Z,97.30
2018-09-20T21:28:43.629Z,97.20
2018-09-20T21:31:11.807Z,97.20
2018-09-20T21:33:39.977Z,97.20
2018-09-20T21:36:08.178Z,97.10
2018-09-20T21:38:36.336Z,97.40
2018-09-20T21:41:04.545Z,97.60
2018-09-20T21:43:33.097Z,97.80
2018-09-20T21:46:01.330Z,97.60
2018-09-20T21:48:29.440Z,97.90
2018-09-20T21:50:57.673Z,98.00
2018-09-20T21:53:25.821Z,97.90
2018-09-20T21:55:54.040Z,97.90
2018-09-20T21:58:22.169Z,97.80
2018-09-20T22:00:52.999Z,97.70
2018-09-20T22:03:21.211Z,97.80
2018-09-20T22:05:49.304Z,97.80
2018-09-20T22:08:17.394Z,97.80
2018-09-20T22:10:45.623Z,97.90
2018-09-20T22:13:13.761Z,98.10
2018-09-20T22:15:41.877Z,98.20
2018-09-20T22:18:09.997Z,98.30
2018-09-20T22:20:38.287Z,98.20
2018-09-20T22:23:06.461Z,98.50
2018-09-20T22:25:34.674Z,98.40
2018-09-20T22:28:02.793Z,98.60
2018-09-20T22:30:30.993Z,98.80
2018-09-20T22:32:59.134Z,98.90
2018-09-20T22:35:27.284Z,99.10
2018-09-20T22:37:55.405Z,99.20
2018-09-20T22:40:23.569Z,99.40
2018-09-20T22:42:51.726Z,99.40
2018-09-20T22:45:19.923Z,99.60
2018-09-20T22:47:48.123Z,99.70
2018-09-20T22:50:16.224Z,99.70
2018-09-20T22:52:44.332Z,99.80
2018-09-20T22:55:12.511Z,99.90
2018-09-20T22:57:40.644Z,99.70
2018-09-20T23:00:08.818Z,99.60
2018-09-20T23:02:36.980Z,99.50
2018-09-20T23:05:05.283Z,99.40
2018-09-20T23:07:33.438Z,99.40
2018-09-20T23:10:01.570Z,99.50
2018-09-20T23:12:29.790Z,99.50
2018-09-20T23:14:57.905Z,99.60
2018-09-20T23:17:26.120Z,99.70
2018-09-20T23:19:54.257Z,99.80
2018-09-20T23:22:22.400Z,99.80
2018-09-20T23:24:50.505Z,99.70
2018-09-20T23:27:18.686Z,99.50
2018-09-20T23:29:46.853Z,99.30
2018-09-20T23:32:15.033Z,99.00
2018-09-20T23:34:43.410Z,99.10
2018-09-20T23:37:11.519Z,99.10
2018-09-20T23:39:39.644Z,99.00
2018-09-20T23:42:07.840Z,99.20
2018-09-20T23:44:36.002Z,99.10
2018-09-20T23:47:04.072Z,99.20
2018-09-20T23:49:32.349Z,99.20
2018-09-20T23:52:00.578Z,99.30
2018-09-20T23:54:28.715Z,99.40
2018-09-20T23:56:57.007Z,99.50
2018-09-20T23:59:26.205Z,99.60
